sensor_id;sensor_type;location;lat;lon;timestamp;temperature;humidity
8103;DHT22;4094;49.948;11.574;2023-05-10T00:01:18;18.10;44.60
8103;DHT22;4094;49.948;11.574;2023-05-10T00:03:47;18.10;44.60
8103;DHT22;4094;49.948;11.574;2023-05-10T00:06:17;18.10;44.90
8103;DHT22;4094;49.948;11.574;2023-05-10T00:08:46;18.10;44.80
8103;DHT22;4094;49.948;11.574;2023-05-10T00:11:15;18.10;44.80
8103;DHT22;4094;49.948;11.574;2023-05-10T00:13:44;18.10;44.90
8103;DHT22;4094;49.948;11.574;2023-05-10T00:16:14;18.10;45.10
8103;DHT22;4094;49.948;11.574;2023-05-10T00:18:44;18.00;45.10
8103;DHT22;4094;49.948;11.574;2023-05-10T00:21:13;18.00;45.10
8103;DHT22;4094;49.948;11.574;2023-05-10T00:23:43;18.00;45.20
8103;DHT22;4094;49.948;11.574;2023-05-10T00:26:12;17.90;45.00
8103;DHT22;4094;49.948;11.574;2023-05-10T00:28:45;17.90;45.00
8103;DHT22;4094;49.948;11.574;2023-05-10T00:31:14;17.90;45.00
8103;DHT22;4094;49.948;11.574;2023-05-10T00:33:45;17.80;45.00
8103;DHT22;4094;49.948;11.574;2023-05-10T00:36:14;17.80;45.20
8103;DHT22;4094;49.948;11.574;2023-05-10T00:38:43;17.80;45.20
8103;DHT22;4094;49.948;11.574;2023-05-10T00:41:12;17.70;45.20
8103;DHT22;4094;49.948;11.574;2023-05-10T00:43:42;17.70;45.30
8103;DHT22;4094;49.948;11.574;2023-05-10T00:46:11;17.70;45.40
8103;DHT22;4094;49.948;11.574;2023-05-10T00:48:41;17.70;45.30
8103;DHT22;4094;49.948;11.574;2023-05-10T00:51:12;17.60;45.30
8103;DHT22;4094;49.948;11.574;2023-05-10T00:53:43;17.60;45.60
8103;DHT22;4094;49.948;11.574;2023-05-10T00:56:13;17.60;45.60
8103;DHT22;4094;49.948;11.574;2023-05-10T00:58:42;17.60;45.60
8103;DHT22;4094;49.948;11.574;2023-05-10T01:01:11;17.60;45.60
8103;DHT22;4094;49.948;11.574;2023-05-10T01:03:41;17.60;45.70
8103;DHT22;4094;49.948;11.574;2023-05-10T01:06:12;17.50;45.70
8103;DHT22;4094;49.948;11.574;2023-05-10T01:08:41;17.50;45.80
8103;DHT22;4094;49.948;11.574;2023-05-10T01:11:10;17.50;45.80
8103;DHT22;4094;49.948;11.574;2023-05-10T01:13:41;17.50;46.00
8103;DHT22;4094;49.948;11.574;2023-05-10T01:16:11;17.50;46.00
8103;DHT22;4094;49.948;11.574;2023-05-10T01:18:40;17.50;46.00
8103;DHT22;4094;49.948;11.574;2023-05-10T01:21:21;17.40;46.00
8103;DHT22;4094;49.948;11.574;2023-05-10T01:24:19;17.40;46.10
8103;DHT22;4094;49.948;11.574;2023-05-10T01:27:17;17.40;46.20
8103;DHT22;4094;49.948;11.574;2023-05-10T01:30:05;17.40;46.30
8103;DHT22;4094;49.948;11.574;2023-05-10T01:32:48;17.40;46.40
8103;DHT22;4094;49.948;11.574;2023-05-10T01:35:22;17.30;46.40
8103;DHT22;4094;49.948;11.574;2023-05-10T01:38:03;17.30;46.40
8103;DHT22;4094;49.948;11.574;2023-05-10T01:40:39;17.30;46.60
8103;DHT22;4094;49.948;11.574;2023-05-10T01:43:14;17.30;46.70
8103;DHT22;4094;49.948;11.574;2023-05-10T01:45:50;17.30;46.80
8103;DHT22;4094;49.948;11.574;2023-05-10T01:48:27;17.20;46.70
8103;DHT22;4094;49.948;11.574;2023-05-10T01:50:58;17.20;46.90
8103;DHT22;4094;49.948;11.574;2023-05-10T01:53:28;17.20;46.90
8103;DHT22;4094;49.948;11.574;2023-05-10T01:55:58;17.20;46.90
8103;DHT22;4094;49.948;11.574;2023-05-10T01:58:31;17.20;47.00
8103;DHT22;4094;49.948;11.574;2023-05-10T02:01:03;17.10;47.00
8103;DHT22;4094;49.948;11.574;2023-05-10T02:03:35;17.10;47.20
8103;DHT22;4094;49.948;11.574;2023-05-10T02:06:07;17.10;47.20
8103;DHT22;4094;49.948;11.574;2023-05-10T02:08:39;17.10;47.40
8103;DHT22;4094;49.948;11.574;2023-05-10T02:11:11;17.10;47.40
8103;DHT22;4094;49.948;11.574;2023-05-10T02:13:42;17.10;47.50
8103;DHT22;4094;49.948;11.574;2023-05-10T02:16:13;17.10;47.50
8103;DHT22;4094;49.948;11.574;2023-05-10T02:18:45;17.10;47.50
8103;DHT22;4094;49.948;11.574;2023-05-10T02:21:15;17.10;47.60
8103;DHT22;4094;49.948;11.574;2023-05-10T02:23:46;17.10;47.60
8103;DHT22;4094;49.948;11.574;2023-05-10T02:26:18;17.10;47.60
8103;DHT22;4094;49.948;11.574;2023-05-10T02:28:49;17.10;47.70
8103;DHT22;4094;49.948;11.574;2023-05-10T02:31:19;17.00;47.70
8103;DHT22;4094;49.948;11.574;2023-05-10T02:33:51;17.00;47.70
8103;DHT22;4094;49.948;11.574;2023-05-10T02:36:21;17.00;47.80
8103;DHT22;4094;49.948;11.574;2023-05-10T02:38:51;17.00;47.90
8103;DHT22;4094;49.948;11.574;2023-05-10T02:41:24;17.00;47.90
8103;DHT22;4094;49.948;11.574;2023-05-10T02:43:57;17.00;47.90
8103;DHT22;4094;49.948;11.574;2023-05-10T02:46:28;17.00;48.10
8103;DHT22;4094;49.948;11.574;2023-05-10T02:48:59;16.90;48.00
8103;DHT22;4094;49.948;11.574;2023-05-10T02:51:32;16.90;48.10
8103;DHT22;4094;49.948;11.574;2023-05-10T02:54:10;16.90;48.20
8103;DHT22;4094;49.948;11.574;2023-05-10T02:56:43;16.90;48.40
8103;DHT22;4094;49.948;11.574;2023-05-10T02:59:16;16.90;48.30
8103;DHT22;4094;49.948;11.574;2023-05-10T03:01:45;16.90;48.30
8103;DHT22;4094;49.948;11.574;2023-05-10T03:04:16;16.90;48.40
8103;DHT22;4094;49.948;11.574;2023-05-10T03:06:45;16.90;48.40
8103;DHT22;4094;49.948;11.574;2023-05-10T03:09:15;16.90;48.40
8103;DHT22;4094;49.948;11.574;2023-05-10T03:11:52;16.90;49.00
8103;DHT22;4094;49.948;11.574;2023-05-10T03:14:34;16.90;48.70
8103;DHT22;4094;49.948;11.574;2023-05-10T03:17:14;16.80;48.60
8103;DHT22;4094;49.948;11.574;2023-05-10T03:19:51;16.90;48.70
8103;DHT22;4094;49.948;11.574;2023-05-10T03:22:26;16.80;48.80
8103;DHT22;4094;49.948;11.574;2023-05-10T03:24:56;16.80;48.80
8103;DHT22;4094;49.948;11.574;2023-05-10T03:27:31;16.80;48.80
8103;DHT22;4094;49.948;11.574;2023-05-10T03:30:02;16.80;48.80
8103;DHT22;4094;49.948;11.574;2023-05-10T03:32:36;16.80;48.90
8103;DHT22;4094;49.948;11.574;2023-05-10T03:35:08;16.80;48.90
8103;DHT22;4094;49.948;11.574;2023-05-10T03:37:38;16.80;49.10
8103;DHT22;4094;49.948;11.574;2023-05-10T03:40:08;16.80;49.10
8103;DHT22;4094;49.948;11.574;2023-05-10T03:42:40;16.80;49.30
8103;DHT22;4094;49.948;11.574;2023-05-10T03:45:10;16.80;49.40
8103;DHT22;4094;49.948;11.574;2023-05-10T03:47:39;16.80;49.60
8103;DHT22;4094;49.948;11.574;2023-05-10T03:50:10;16.80;49.60
8103;DHT22;4094;49.948;11.574;2023-05-10T03:52:39;16.80;49.70
8103;DHT22;4094;49.948;11.574;2023-05-10T03:55:08;16.80;50.00
8103;DHT22;4094;49.948;11.574;2023-05-10T03:57:38;16.70;50.00
8103;DHT22;4094;49.948;11.574;2023-05-10T04:00:09;16.70;50.30
8103;DHT22;4094;49.948;11.574;2023-05-10T04:02:41;16.70;50.20
8103;DHT22;4094;49.948;11.574;2023-05-10T04:05:19;16.80;50.40
8103;DHT22;4094;49.948;11.574;2023-05-10T04:07:48;16.80;50.40
8103;DHT22;4094;49.948;11.574;2023-05-10T04:10:19;16.80;50.70
8103;DHT22;4094;49.948;11.574;2023-05-10T04:12:48;16.80;51.20
8103;DHT22;4094;49.948;11.574;2023-05-10T04:15:18;16.80;50.40
8103;DHT22;4094;49.948;11.574;2023-05-10T04:17:47;16.80;50.50
8103;DHT22;4094;49.948;11.574;2023-05-10T04:20:17;16.80;50.60
8103;DHT22;4094;49.948;11.574;2023-05-10T04:22:47;16.80;50.60
8103;DHT22;4094;49.948;11.574;2023-05-10T04:25:16;16.70;50.70
8103;DHT22;4094;49.948;11.574;2023-05-10T04:27:46;16.70;51.00
8103;DHT22;4094;49.948;11.574;2023-05-10T04:30:15;16.80;51.30
8103;DHT22;4094;49.948;11.574;2023-05-10T04:32:44;16.70;51.50
8103;DHT22;4094;49.948;11.574;2023-05-10T04:35:14;16.70;51.70
8103;DHT22;4094;49.948;11.574;2023-05-10T04:37:43;16.70;51.90
8103;DHT22;4094;49.948;11.574;2023-05-10T04:40:14;16.70;52.20
8103;DHT22;4094;49.948;11.574;2023-05-10T04:42:44;16.60;52.20
8103;DHT22;4094;49.948;11.574;2023-05-10T04:45:13;16.60;52.50
8103;DHT22;4094;49.948;11.574;2023-05-10T04:47:43;16.60;52.80
8103;DHT22;4094;49.948;11.574;2023-05-10T04:50:12;16.60;52.80
8103;DHT22;4094;49.948;11.574;2023-05-10T04:52:41;16.50;53.20
8103;DHT22;4094;49.948;11.574;2023-05-10T04:55:10;16.50;53.50
8103;DHT22;4094;49.948;11.574;2023-05-10T04:57:41;16.50;53.80
8103;DHT22;4094;49.948;11.574;2023-05-10T05:00:11;16.50;54.00
8103;DHT22;4094;49.948;11.574;2023-05-10T05:02:42;16.50;54.00
8103;DHT22;4094;49.948;11.574;2023-05-10T05:05:13;16.50;54.40
8103;DHT22;4094;49.948;11.574;2023-05-10T05:07:42;16.40;54.80
8103;DHT22;4094;49.948;11.574;2023-05-10T05:10:12;16.40;55.10
8103;DHT22;4094;49.948;11.574;2023-05-10T05:12:42;16.30;55.30
8103;DHT22;4094;49.948;11.574;2023-05-10T05:15:12;16.30;55.60
8103;DHT22;4094;49.948;11.574;2023-05-10T05:17:41;16.30;55.90
8103;DHT22;4094;49.948;11.574;2023-05-10T05:20:11;16.30;56.50
8103;DHT22;4094;49.948;11.574;2023-05-10T05:22:41;16.20;56.40
8103;DHT22;4094;49.948;11.574;2023-05-10T05:25:10;16.20;56.80
8103;DHT22;4094;49.948;11.574;2023-05-10T05:27:39;16.10;57.00
8103;DHT22;4094;49.948;11.574;2023-05-10T05:30:11;16.10;57.50
8103;DHT22;4094;49.948;11.574;2023-05-10T05:32:40;16.00;57.50
8103;DHT22;4094;49.948;11.574;2023-05-10T05:35:10;16.00;58.00
8103;DHT22;4094;49.948;11.574;2023-05-10T05:37:39;15.90;58.00
8103;DHT22;4094;49.948;11.574;2023-05-10T05:40:12;15.90;58.40
8103;DHT22;4094;49.948;11.574;2023-05-10T05:42:41;15.90;58.70
8103;DHT22;4094;49.948;11.574;2023-05-10T05:45:12;15.80;58.80
8103;DHT22;4094;49.948;11.574;2023-05-10T05:47:42;15.80;59.00
8103;DHT22;4094;49.948;11.574;2023-05-10T05:50:11;15.80;59.20
8103;DHT22;4094;49.948;11.574;2023-05-10T05:52:44;15.80;59.20
8103;DHT22;4094;49.948;11.574;2023-05-10T05:55:13;15.70;59.70
8103;DHT22;4094;49.948;11.574;2023-05-10T05:57:43;15.70;60.10
8103;DHT22;4094;49.948;11.574;2023-05-10T06:00:15;15.70;60.30
8103;DHT22;4094;49.948;11.574;2023-05-10T06:02:45;15.70;60.50
8103;DHT22;4094;49.948;11.574;2023-05-10T06:05:15;15.70;60.50
8103;DHT22;4094;49.948;11.574;2023-05-10T06:07:44;15.80;60.70
8103;DHT22;4094;49.948;11.574;2023-05-10T06:10:14;15.80;61.00
8103;DHT22;4094;49.948;11.574;2023-05-10T06:12:43;15.80;61.40
8103;DHT22;4094;49.948;11.574;2023-05-10T06:15:14;15.80;61.40
8103;DHT22;4094;49.948;11.574;2023-05-10T06:17:44;15.80;61.30
8103;DHT22;4094;49.948;11.574;2023-05-10T06:20:15;15.80;61.40
8103;DHT22;4094;49.948;11.574;2023-05-10T06:22:44;15.90;61.60
8103;DHT22;4094;49.948;11.574;2023-05-10T06:25:14;15.80;61.90
8103;DHT22;4094;49.948;11.574;2023-05-10T06:27:46;15.90;62.40
8103;DHT22;4094;49.948;11.574;2023-05-10T06:30:23;15.90;62.30
8103;DHT22;4094;49.948;11.574;2023-05-10T06:32:55;15.90;62.60
8103;DHT22;4094;49.948;11.574;2023-05-10T06:35:25;15.90;63.00
8103;DHT22;4094;49.948;11.574;2023-05-10T06:37:54;16.00;63.00
8103;DHT22;4094;49.948;11.574;2023-05-10T06:40:24;16.10;63.30
8103;DHT22;4094;49.948;11.574;2023-05-10T06:42:54;16.10;63.30
8103;DHT22;4094;49.948;11.574;2023-05-10T06:45:24;16.10;63.10
8103;DHT22;4094;49.948;11.574;2023-05-10T06:47:54;16.10;63.70
8103;DHT22;4094;49.948;11.574;2023-05-10T06:50:23;16.20;63.40
8103;DHT22;4094;49.948;11.574;2023-05-10T06:52:52;16.20;63.40
8103;DHT22;4094;49.948;11.574;2023-05-10T06:55:22;16.20;63.30
8103;DHT22;4094;49.948;11.574;2023-05-10T06:57:51;16.20;63.60
8103;DHT22;4094;49.948;11.574;2023-05-10T07:00:21;16.20;63.90
8103;DHT22;4094;49.948;11.574;2023-05-10T07:02:52;16.20;64.00
8103;DHT22;4094;49.948;11.574;2023-05-10T07:05:21;16.20;64.10
8103;DHT22;4094;49.948;11.574;2023-05-10T07:07:50;16.20;64.40
8103;DHT22;4094;49.948;11.574;2023-05-10T07:10:21;16.20;64.90
8103;DHT22;4094;49.948;11.574;2023-05-10T07:12:50;16.20;65.00
8103;DHT22;4094;49.948;11.574;2023-05-10T07:15:20;16.30;65.50
8103;DHT22;4094;49.948;11.574;2023-05-10T07:17:52;16.30;65.50
8103;DHT22;4094;49.948;11.574;2023-05-10T07:20:21;16.30;65.70
8103;DHT22;4094;49.948;11.574;2023-05-10T07:22:51;16.30;65.80
8103;DHT22;4094;49.948;11.574;2023-05-10T07:25:20;16.40;66.10
8103;DHT22;4094;49.948;11.574;2023-05-10T07:27:49;16.40;65.80
8103;DHT22;4094;49.948;11.574;2023-05-10T07:30:19;16.50;66.10
8103;DHT22;4094;49.948;11.574;2023-05-10T07:32:48;16.50;66.10
8103;DHT22;4094;49.948;11.574;2023-05-10T07:35:19;16.50;65.80
8103;DHT22;4094;49.948;11.574;2023-05-10T07:37:48;16.60;66.30
8103;DHT22;4094;49.948;11.574;2023-05-10T07:40:18;16.60;66.50
8103;DHT22;4094;49.948;11.574;2023-05-10T07:42:47;16.60;66.50
8103;DHT22;4094;49.948;11.574;2023-05-10T07:45:18;16.60;66.60
8103;DHT22;4094;49.948;11.574;2023-05-10T07:47:47;16.60;66.70
8103;DHT22;4094;49.948;11.574;2023-05-10T07:50:16;16.60;66.60
8103;DHT22;4094;49.948;11.574;2023-05-10T07:52:47;16.70;66.70
8103;DHT22;4094;49.948;11.574;2023-05-10T07:55:18;16.70;66.90
8103;DHT22;4094;49.948;11.574;2023-05-10T07:57:49;16.80;66.80
8103;DHT22;4094;49.948;11.574;2023-05-10T08:00:19;16.80;66.80
8103;DHT22;4094;49.948;11.574;2023-05-10T08:02:49;16.80;67.00
8103;DHT22;4094;49.948;11.574;2023-05-10T08:05:18;16.90;67.10
8103;DHT22;4094;49.948;11.574;2023-05-10T08:07:49;16.90;67.10
8103;DHT22;4094;49.948;11.574;2023-05-10T08:10:19;16.90;67.30
8103;DHT22;4094;49.948;11.574;2023-05-10T08:12:48;17.00;67.30
8103;DHT22;4094;49.948;11.574;2023-05-10T08:15:17;17.10;67.60
8103;DHT22;4094;49.948;11.574;2023-05-10T08:17:46;17.10;67.60
8103;DHT22;4094;49.948;11.574;2023-05-10T08:20:16;17.10;67.60
8103;DHT22;4094;49.948;11.574;2023-05-10T08:22:46;17.20;67.70
8103;DHT22;4094;49.948;11.574;2023-05-10T08:25:19;17.30;67.80
8103;DHT22;4094;49.948;11.574;2023-05-10T08:27:49;17.30;67.60
8103;DHT22;4094;49.948;11.574;2023-05-10T08:30:19;17.40;67.60
8103;DHT22;4094;49.948;11.574;2023-05-10T08:32:48;17.40;67.40
8103;DHT22;4094;49.948;11.574;2023-05-10T08:35:18;17.40;67.20
8103;DHT22;4094;49.948;11.574;2023-05-10T08:37:47;17.40;67.00
8103;DHT22;4094;49.948;11.574;2023-05-10T08:40:16;17.40;67.00
8103;DHT22;4094;49.948;11.574;2023-05-10T08:42:53;17.50;67.40
8103;DHT22;4094;49.948;11.574;2023-05-10T08:45:24;17.50;67.80
8103;DHT22;4094;49.948;11.574;2023-05-10T08:47:55;17.50;67.60
8103;DHT22;4094;49.948;11.574;2023-05-10T08:50:25;17.60;67.60
8103;DHT22;4094;49.948;11.574;2023-05-10T08:52:57;17.60;68.00
8103;DHT22;4094;49.948;11.574;2023-05-10T08:55:28;17.70;68.10
8103;DHT22;4094;49.948;11.574;2023-05-10T08:57:59;17.80;67.90
8103;DHT22;4094;49.948;11.574;2023-05-10T09:00:29;17.90;68.20
8103;DHT22;4094;49.948;11.574;2023-05-10T09:02:59;18.00;68.10
8103;DHT22;4094;49.948;11.574;2023-05-10T09:05:28;18.20;67.60
8103;DHT22;4094;49.948;11.574;2023-05-10T09:07:58;18.30;66.70
8103;DHT22;4094;49.948;11.574;2023-05-10T09:10:28;18.30;66.50
8103;DHT22;4094;49.948;11.574;2023-05-10T09:13:00;18.40;66.20
8103;DHT22;4094;49.948;11.574;2023-05-10T09:15:29;18.40;66.00
8103;DHT22;4094;49.948;11.574;2023-05-10T09:17:58;18.40;66.30
8103;DHT22;4094;49.948;11.574;2023-05-10T09:20:30;18.40;66.50
8103;DHT22;4094;49.948;11.574;2023-05-10T09:22:59;18.40;66.00
8103;DHT22;4094;49.948;11.574;2023-05-10T09:25:29;18.40;65.90
8103;DHT22;4094;49.948;11.574;2023-05-10T09:28:06;18.40;66.10
8103;DHT22;4094;49.948;11.574;2023-05-10T09:30:35;18.40;66.80
8103;DHT22;4094;49.948;11.574;2023-05-10T09:33:05;18.40;66.50
8103;DHT22;4094;49.948;11.574;2023-05-10T09:35:34;18.40;65.90
8103;DHT22;4094;49.948;11.574;2023-05-10T09:38:04;18.50;66.30
8103;DHT22;4094;49.948;11.574;2023-05-10T09:40:34;18.60;65.30
8103;DHT22;4094;49.948;11.574;2023-05-10T09:43:07;18.70;65.10
8103;DHT22;4094;49.948;11.574;2023-05-10T09:45:36;18.80;65.40
8103;DHT22;4094;49.948;11.574;2023-05-10T09:48:06;18.80;64.80
8103;DHT22;4094;49.948;11.574;2023-05-10T09:50:35;19.00;64.90
8103;DHT22;4094;49.948;11.574;2023-05-10T09:53:05;19.00;64.40
8103;DHT22;4094;49.948;11.574;2023-05-10T09:55:41;19.10;63.90
8103;DHT22;4094;49.948;11.574;2023-05-10T09:58:14;19.10;63.50
8103;DHT22;4094;49.948;11.574;2023-05-10T10:00:44;19.10;63.50
8103;DHT22;4094;49.948;11.574;2023-05-10T10:03:17;19.10;62.70
8103;DHT22;4094;49.948;11.574;2023-05-10T10:05:47;19.10;62.10
8103;DHT22;4094;49.948;11.574;2023-05-10T10:08:17;19.10;62.50
8103;DHT22;4094;49.948;11.574;2023-05-10T10:10:46;19.20;62.30
8103;DHT22;4094;49.948;11.574;2023-05-10T10:13:19;19.20;62.50
8103;DHT22;4094;49.948;11.574;2023-05-10T10:15:49;19.30;62.10
8103;DHT22;4094;49.948;11.574;2023-05-10T10:18:19;19.30;61.40
8103;DHT22;4094;49.948;11.574;2023-05-10T10:20:52;19.40;61.50
8103;DHT22;4094;49.948;11.574;2023-05-10T10:23:21;19.50;61.00
8103;DHT22;4094;49.948;11.574;2023-05-10T10:25:52;19.50;61.10
8103;DHT22;4094;49.948;11.574;2023-05-10T10:28:32;19.50;60.70
8103;DHT22;4094;49.948;11.574;2023-05-10T10:31:17;19.60;61.20
8103;DHT22;4094;49.948;11.574;2023-05-10T10:33:59;19.60;60.90
8103;DHT22;4094;49.948;11.574;2023-05-10T10:36:29;19.60;61.10
8103;DHT22;4094;49.948;11.574;2023-05-10T10:39:01;19.50;60.90
8103;DHT22;4094;49.948;11.574;2023-05-10T10:41:33;19.50;61.00
8103;DHT22;4094;49.948;11.574;2023-05-10T10:44:33;19.60;61.10
8103;DHT22;4094;49.948;11.574;2023-05-10T10:47:04;19.60;61.00
8103;DHT22;4094;49.948;11.574;2023-05-10T10:49:43;19.60;60.70
8103;DHT22;4094;49.948;11.574;2023-05-10T10:52:25;19.70;60.30
8103;DHT22;4094;49.948;11.574;2023-05-10T10:55:01;19.80;60.10
8103;DHT22;4094;49.948;11.574;2023-05-10T10:57:32;19.80;60.60
8103;DHT22;4094;49.948;11.574;2023-05-10T11:00:25;20.00;60.80
8103;DHT22;4094;49.948;11.574;2023-05-10T11:02:58;20.10;60.20
8103;DHT22;4094;49.948;11.574;2023-05-10T11:05:46;20.30;59.40
8103;DHT22;4094;49.948;11.574;2023-05-10T11:08:18;20.40;58.50
8103;DHT22;4094;49.948;11.574;2023-05-10T11:11:03;20.50;58.60
8103;DHT22;4094;49.948;11.574;2023-05-10T11:13:39;20.60;58.20
8103;DHT22;4094;49.948;11.574;2023-05-10T11:16:15;20.60;57.80
8103;DHT22;4094;49.948;11.574;2023-05-10T11:18:58;20.70;58.20
8103;DHT22;4094;49.948;11.574;2023-05-10T11:21:30;20.70;57.70
8103;DHT22;4094;49.948;11.574;2023-05-10T11:24:01;20.70;57.80
8103;DHT22;4094;49.948;11.574;2023-05-10T11:26:35;20.60;58.00
8103;DHT22;4094;49.948;11.574;2023-05-10T11:29:05;20.50;58.30
8103;DHT22;4094;49.948;11.574;2023-05-10T11:31:35;20.50;59.40
8103;DHT22;4094;49.948;11.574;2023-05-10T11:34:11;20.40;59.70
8103;DHT22;4094;49.948;11.574;2023-05-10T11:36:42;20.30;60.00
8103;DHT22;4094;49.948;11.574;2023-05-10T11:39:11;20.20;60.20
8103;DHT22;4094;49.948;11.574;2023-05-10T11:41:40;20.10;60.70
8103;DHT22;4094;49.948;11.574;2023-05-10T11:44:10;20.00;60.80
8103;DHT22;4094;49.948;11.574;2023-05-10T11:46:40;19.90;61.10
8103;DHT22;4094;49.948;11.574;2023-05-10T11:49:10;19.80;61.70
8103;DHT22;4094;49.948;11.574;2023-05-10T11:51:40;19.70;61.90
8103;DHT22;4094;49.948;11.574;2023-05-10T11:54:11;19.60;62.30
8103;DHT22;4094;49.948;11.574;2023-05-10T11:56:40;19.50;62.80
8103;DHT22;4094;49.948;11.574;2023-05-10T11:59:10;19.50;62.80
8103;DHT22;4094;49.948;11.574;2023-05-10T12:01:41;19.40;63.40
8103;DHT22;4094;49.948;11.574;2023-05-10T12:04:10;19.40;63.60
8103;DHT22;4094;49.948;11.574;2023-05-10T12:06:40;19.30;63.80
8103;DHT22;4094;49.948;11.574;2023-05-10T12:09:10;19.30;64.30
8103;DHT22;4094;49.948;11.574;2023-05-10T12:11:40;19.30;64.30
8103;DHT22;4094;49.948;11.574;2023-05-10T12:14:11;19.30;64.90
8103;DHT22;4094;49.948;11.574;2023-05-10T12:16:43;19.30;65.30
8103;DHT22;4094;49.948;11.574;2023-05-10T12:19:18;19.30;65.10
8103;DHT22;4094;49.948;11.574;2023-05-10T12:21:48;19.40;65.00
8103;DHT22;4094;49.948;11.574;2023-05-10T12:24:18;19.40;64.60
8103;DHT22;4094;49.948;11.574;2023-05-10T12:26:50;19.40;64.00
8103;DHT22;4094;49.948;11.574;2023-05-10T12:29:19;19.50;63.60
8103;DHT22;4094;49.948;11.574;2023-05-10T12:31:57;19.50;63.60
8103;DHT22;4094;49.948;11.574;2023-05-10T12:34:30;19.60;63.20
8103;DHT22;4094;49.948;11.574;2023-05-10T12:37:01;19.60;63.40
8103;DHT22;4094;49.948;11.574;2023-05-10T12:39:40;19.60;63.30
8103;DHT22;4094;49.948;11.574;2023-05-10T12:42:10;19.60;62.80
8103;DHT22;4094;49.948;11.574;2023-05-10T12:44:39;19.70;62.80
8103;DHT22;4094;49.948;11.574;2023-05-10T12:47:10;19.70;62.70
8103;DHT22;4094;49.948;11.574;2023-05-10T12:49:39;19.70;63.10
8103;DHT22;4094;49.948;11.574;2023-05-10T12:52:08;19.80;62.80
8103;DHT22;4094;49.948;11.574;2023-05-10T12:54:38;19.80;62.60
8103;DHT22;4094;49.948;11.574;2023-05-10T12:57:07;19.90;62.10
8103;DHT22;4094;49.948;11.574;2023-05-10T12:59:38;19.90;62.00
8103;DHT22;4094;49.948;11.574;2023-05-10T13:02:10;19.80;61.90
8103;DHT22;4094;49.948;11.574;2023-05-10T13:04:39;19.80;61.70
8103;DHT22;4094;49.948;11.574;2023-05-10T13:07:09;19.70;61.80
8103;DHT22;4094;49.948;11.574;2023-05-10T13:09:39;19.60;61.80
8103;DHT22;4094;49.948;11.574;2023-05-10T13:12:08;19.60;62.20
8103;DHT22;4094;49.948;11.574;2023-05-10T13:14:38;19.60;63.00
8103;DHT22;4094;49.948;11.574;2023-05-10T13:17:09;19.60;63.10
8103;DHT22;4094;49.948;11.574;2023-05-10T13:19:39;19.60;63.40
8103;DHT22;4094;49.948;11.574;2023-05-10T13:22:10;19.60;63.70
8103;DHT22;4094;49.948;11.574;2023-05-10T13:24:39;19.60;63.20
8103;DHT22;4094;49.948;11.574;2023-05-10T13:27:09;19.60;62.90
8103;DHT22;4094;49.948;11.574;2023-05-10T13:29:38;19.60;62.90
8103;DHT22;4094;49.948;11.574;2023-05-10T13:32:10;19.60;62.50
8103;DHT22;4094;49.948;11.574;2023-05-10T13:34:39;19.60;62.20
8103;DHT22;4094;49.948;11.574;2023-05-10T13:37:09;19.70;62.10
8103;DHT22;4094;49.948;11.574;2023-05-10T13:39:38;19.70;62.20
8103;DHT22;4094;49.948;11.574;2023-05-10T13:42:07;19.80;61.80
8103;DHT22;4094;49.948;11.574;2023-05-10T13:44:36;19.80;61.80
8103;DHT22;4094;49.948;11.574;2023-05-10T13:47:06;19.90;61.00
8103;DHT22;4094;49.948;11.574;2023-05-10T13:49:37;19.90;61.00
8103;DHT22;4094;49.948;11.574;2023-05-10T13:52:06;20.00;60.80
8103;DHT22;4094;49.948;11.574;2023-05-10T13:54:36;20.00;60.80
8103;DHT22;4094;49.948;11.574;2023-05-10T13:57:05;20.10;60.40
8103;DHT22;4094;49.948;11.574;2023-05-10T13:59:35;20.10;60.30
8103;DHT22;4094;49.948;11.574;2023-05-10T14:02:05;20.10;60.20
8103;DHT22;4094;49.948;11.574;2023-05-10T14:04:34;20.10;60.70
8103;DHT22;4094;49.948;11.574;2023-05-10T14:07:05;20.20;60.20
8103;DHT22;4094;49.948;11.574;2023-05-10T14:09:34;20.20;60.00
8103;DHT22;4094;49.948;11.574;2023-05-10T14:12:04;20.20;59.50
8103;DHT22;4094;49.948;11.574;2023-05-10T14:14:33;20.20;59.40
8103;DHT22;4094;49.948;11.574;2023-05-10T14:17:03;20.10;59.30
8103;DHT22;4094;49.948;11.574;2023-05-10T14:19:32;20.10;59.40
8103;DHT22;4094;49.948;11.574;2023-05-10T14:22:01;20.10;59.00
8103;DHT22;4094;49.948;11.574;2023-05-10T14:24:32;20.10;59.10
8103;DHT22;4094;49.948;11.574;2023-05-10T14:27:01;20.00;59.50
8103;DHT22;4094;49.948;11.574;2023-05-10T14:29:31;20.00;59.10
8103;DHT22;4094;49.948;11.574;2023-05-10T14:32:01;20.00;58.90
8103;DHT22;4094;49.948;11.574;2023-05-10T14:34:31;20.00;59.30
8103;DHT22;4094;49.948;11.574;2023-05-10T14:37:00;20.00;59.20
8103;DHT22;4094;49.948;11.574;2023-05-10T14:39:29;20.00;59.00
8103;DHT22;4094;49.948;11.574;2023-05-10T14:42:00;20.00;58.70
8103;DHT22;4094;49.948;11.574;2023-05-10T14:44:30;20.00;59.10
8103;DHT22;4094;49.948;11.574;2023-05-10T14:46:59;20.00;58.80
8103;DHT22;4094;49.948;11.574;2023-05-10T14:49:29;20.00;59.10
8103;DHT22;4094;49.948;11.574;2023-05-10T14:51:59;20.00;59.30
8103;DHT22;4094;49.948;11.574;2023-05-10T14:54:28;20.00;59.50
8103;DHT22;4094;49.948;11.574;2023-05-10T14:56:58;20.00;59.60
8103;DHT22;4094;49.948;11.574;2023-05-10T14:59:29;20.00;59.60
8103;DHT22;4094;49.948;11.574;2023-05-10T15:01:59;20.10;59.40
8103;DHT22;4094;49.948;11.574;2023-05-10T15:04:29;20.10;59.60
8103;DHT22;4094;49.948;11.574;2023-05-10T15:06:59;20.10;59.30
8103;DHT22;4094;49.948;11.574;2023-05-10T15:09:28;20.00;59.40
8103;DHT22;4094;49.948;11.574;2023-05-10T15:11:57;20.00;59.60
8103;DHT22;4094;49.948;11.574;2023-05-10T15:14:28;20.00;59.70
8103;DHT22;4094;49.948;11.574;2023-05-10T15:16:58;20.00;60.00
8103;DHT22;4094;49.948;11.574;2023-05-10T15:19:27;20.00;59.70
8103;DHT22;4094;49.948;11.574;2023-05-10T15:21:57;20.00;60.00
8103;DHT22;4094;49.948;11.574;2023-05-10T15:24:26;19.90;59.70
8103;DHT22;4094;49.948;11.574;2023-05-10T15:26:56;19.90;60.20
8103;DHT22;4094;49.948;11.574;2023-05-10T15:29:25;19.80;61.00
8103;DHT22;4094;49.948;11.574;2023-05-10T15:31:55;19.80;61.50
8103;DHT22;4094;49.948;11.574;2023-05-10T15:34:24;19.70;62.30
8103;DHT22;4094;49.948;11.574;2023-05-10T15:36:56;19.60;62.80
8103;DHT22;4094;49.948;11.574;2023-05-10T15:39:25;19.60;63.10
8103;DHT22;4094;49.948;11.574;2023-05-10T15:41:53;19.50;63.40
8103;DHT22;4094;49.948;11.574;2023-05-10T15:44:23;19.40;63.90
8103;DHT22;4094;49.948;11.574;2023-05-10T15:46:52;19.30;63.90
8103;DHT22;4094;49.948;11.574;2023-05-10T15:49:22;19.20;64.10
8103;DHT22;4094;49.948;11.574;2023-05-10T15:51:52;19.10;64.50
8103;DHT22;4094;49.948;11.574;2023-05-10T15:54:21;19.00;64.40
8103;DHT22;4094;49.948;11.574;2023-05-10T15:56:50;19.00;64.40
8103;DHT22;4094;49.948;11.574;2023-05-10T15:59:21;18.90;64.60
8103;DHT22;4094;49.948;11.574;2023-05-10T16:01:50;18.80;64.90
8103;DHT22;4094;49.948;11.574;2023-05-10T16:04:21;18.70;64.60
8103;DHT22;4094;49.948;11.574;2023-05-10T16:06:50;18.70;65.20
8103;DHT22;4094;49.948;11.574;2023-05-10T16:09:19;18.70;65.90